Aviation Digital Data Service (ADDS)

Output produced by METARs form (1026 UTC 16 August 2018)
found at http://aviationweather.gov/adds/metars/
 
KIAH 160953Z 00000KT 10SM FEW020 FEW250 27/25 A3001 RMK AO2 SLP160 T02670250